Stations météo

Publicité
Embrun, France (7591): Température de l'air & dewpoint: 15.10.2017 19:00:00 - 21.10.2017 19:00:00 (CEST)Embrun, France (7591): Température de l'air 5cm: 15.10.2017 19:00:00 - 21.10.2017 19:00:00 (CEST)Embrun, France (7591): Température de l'air -20cm & Température de l'air -100cm: 15.10.2017 19:00:00 - 21.10.2017 19:00:00 (CEST)Embrun, France (7591): Vitesse du vent & gusts: 15.10.2017 19:00:00 - 21.10.2017 19:00:00 (CEST)Embrun, France (7591): Direction du vent: 15.10.2017 19:00:00 - 21.10.2017 19:00:00 (CEST)Embrun, France (7591): visibility: 15.10.2017 19:00:00 - 21.10.2017 19:00:00 (CEST)Embrun, France (7591): Ensoleillement: 15.10.2017 19:00:00 - 21.10.2017 19:00:00 (CEST)Embrun, France (7591): Quantités de précipitations: 15.10.2017 19:00:00 - 21.10.2017 19:00:00 (CEST)
Date & Time tt [°C] td [°C] tt 5cm [°C] tt -20cm [°C] tt -100cm [°C] ff [km/h] ff [knt] fx [km/h] fx [knt] dd vv [km] sd [min] rr [mm]
21.10.2017 19:00:00 17,8 7,5 17,3 14,7 15,6 13 7 21 11 SSW 20 0 0,0
21.10.2017 18:00:00 18,4 7,2 18,0 14,7 15,6 10 5 24 13 SSW 20 0 0,0
21.10.2017 17:00:00 19,8 7,2 20,8 14,6 15,6 16 9 35 19 SSW 20 47 0,0
21.10.2017 16:00:00 20,0 7,0 21,7 14,5 15,6 14 7 30 16 SSW 20 24 0,0
21.10.2017 15:00:00 21,1 7,0 25,2 14,4 15,6 18 10 32 18 SSW 20 60 0,0
21.10.2017 14:00:00 21,1 7,0 23,2 14,4 15,6 16 9 29 16 SSW 20 57 0,0
21.10.2017 13:00:00 17,9 6,7 22,2 14,5 15,6 9 5 18 10 SSW 20 49 0,0
21.10.2017 12:00:00 16,2 6,3 19,2 14,5 15,6 5 3 11 6 S 20 53 0,0
21.10.2017 11:00:00 13,0 5,2 13,4 14,5 15,6 5 3 15 8 ENE 20 27 0,0
21.10.2017 10:00:00 10,5 4,6 9,5 14,5 15,6 10 6 20 11 NNE 20 4 0,0
21.10.2017 09:00:00 9,8 4,2 9,2 14,6 15,6 8 4 19 10 NNE 20 0 0,0
21.10.2017 08:00:00 10,1 4,2 8,1 14,6 15,6 6 4 16 9 NNE 20 0 0,0
21.10.2017 07:00:00 9,5 4,7 7,6 14,7 15,6 5 3 13 7 NNE 20 0 0,0
21.10.2017 06:00:00 10,0 4,6 8,8 14,7 15,6 8 5 12 6 NE 20 0 0,0
21.10.2017 05:00:00 11,0 4,9 10,2 14,7 15,6 0 0 4 2 N 20 0 0,0
21.10.2017 04:00:00 11,0 4,7 10,2 14,7 15,6 2 1 8 4 ENE 20 0 0,0
21.10.2017 03:00:00 10,6 4,5 10,1 14,8 15,6 3 2 8 4 N 20 0 0,0
21.10.2017 02:00:00 10,7 4,6 9,6 14,8 15,6 2 1 4 2 WNW 20 0 0,0
21.10.2017 01:00:00 10,6 4,5 7,2 14,8 15,6 2 1 6 3 NE 20 0 0,0
21.10.2017 00:00:00 10,4 4,3 6,9 14,8 15,6 3 2 6 4 NNE 20 0 0,0
20.10.2017 23:00:00 10,8 4,3 8,4 14,8 15,6 0 0 8 4 N 20 0 0,0
20.10.2017 22:00:00 12,1 4,1 9,0 14,8 15,6 2 1 8 5 SE 20 0 0,0
20.10.2017 21:00:00 12,5 3,7 9,5 14,8 15,6 5 3 9 5 ENE 20 0 0,0
20.10.2017 20:00:00 13,5 4,1 10,3 14,8 15,6 2 1 9 5 NNW 20 0 0,0
20.10.2017 19:00:00 16,0 4,1 12,8 14,8 15,6 4 2 8 4 NNW 20 12 0,0
20.10.2017 18:00:00 17,6 3,1 17,5 14,7 15,6 3 2 5 3 SSE 20 3 0,0
20.10.2017 17:00:00 17,9 3,4 18,3 14,7 15,6 3 1 14 8 S 20 0 0,0
20.10.2017 16:00:00 17,8 2,9 18,4 14,6 15,6 8 4 19 11 SSW 20 0 0,0
20.10.2017 15:00:00 17,6 -0,7 18,4 14,6 15,6 5 3 11 6 S 20 0 0,0
20.10.2017 14:00:00 16,7 -1,9 18,2 14,7 15,6 6 3 17 9 SSW 20 8 0,0
20.10.2017 13:00:00 17,9 -2,4 23,0 14,7 15,6 7 4 13 7 S 20 60 0,0
20.10.2017 12:00:00 14,7 0,5 14,6 14,7 15,6 9 5 24 13 NE 20 22 0,0
20.10.2017 11:00:00 12,0 0,1 12,2 14,8 15,6 15 8 29 16 NNE 20 0 0,0
20.10.2017 10:00:00 10,9 -0,3 9,9 14,8 15,6 18 10 32 18 NNE 20 1 0,0
20.10.2017 09:00:00 9,3 -0,9 7,3 14,9 15,6 16 8 29 16 NE 20 0 0,0
20.10.2017 08:00:00 9,7 -1,4 8,2 15,0 15,6 21 12 38 20 N 20 0 0,0
20.10.2017 07:00:00 9,8 -1,0 7,9 15,1 15,6 18 10 35 19 NNE 20 0 0,0
20.10.2017 06:00:00 9,1 -0,3 7,3 15,1 15,6 21 11 32 18 NE 20 0 0,0
20.10.2017 05:00:00 9,5 -0,1 7,6 15,2 15,6 15 8 33 18 NNE 20 0 0,0
20.10.2017 04:00:00 10,2 -0,1 7,6 15,2 15,6 8 4 29 16 NE 19 0 0,0
20.10.2017 03:00:00 11,8 1,4 9,9 15,2 15,6 16 9 30 16 N 14 0 0,0
20.10.2017 02:00:00 12,5 2,3 9,4 15,3 15,6 19 10 37 20 N 13 0 0,0
20.10.2017 01:00:00 11,9 0,0 9,8 15,3 15,6 11 6 32 17 NNE 16 0 0,0
20.10.2017 00:00:00 12,5 3,2 8,1 15,3 15,6 14 8 23 13 NNE 13 0 0,0
19.10.2017 23:00:00 11,9 1,5 8,3 15,3 15,7 6 4 12 7 NE 20 0 0,0
19.10.2017 22:00:00 12,3 0,4 8,6 15,3 15,6 6 4 12 7 ENE 20 0 0,0
19.10.2017 21:00:00 12,8 -0,8 8,9 15,3 15,6 8 5 14 8 NE 20 0 0,0
19.10.2017 20:00:00 14,3 -0,2 10,3 15,2 15,6 5 3 14 8 N 20 0 0,0
19.10.2017 19:00:00 17,7 -1,1 15,3 15,1 15,6 10 5 20 11 S 19 9 0,0
19.10.2017 18:00:00 20,2 -1,6 19,2 15,0 15,6 10 5 30 16 SSW 20 44 0,0
19.10.2017 17:00:00 22,9 -3,5 26,0 14,8 15,6 16 9 34 18 SW 20 60 0,0
19.10.2017 16:00:00 23,3 -3,1 28,1 14,8 15,6 17 9 35 19 SW 20 60 0,0
19.10.2017 15:00:00 22,7 1,1 28,0 14,7 15,6 19 10 32 17 SSW 20 60 0,0
19.10.2017 14:00:00 22,1 2,7 26,7 14,7 15,6 17 9 29 15 SSW 20 60 0,0
19.10.2017 13:00:00 21,4 3,1 25,0 14,7 15,6 6 4 14 8 S 20 60 0,0
19.10.2017 12:00:00 19,4 3,1 21,9 14,7 15,6 5 3 26 14 E 20 60 0,0
19.10.2017 11:00:00 17,0 3,3 19,4 14,8 15,6 19 11 38 20 N 18 60 0,0
19.10.2017 10:00:00 14,9 3,4 13,6 14,8 15,6 21 11 37 20 N 16 49 0,0
19.10.2017 09:00:00 12,7 2,8 10,5 14,8 15,6 19 10 35 19 NNE 20 1 0,0
19.10.2017 08:00:00 11,5 2,8 9,8 14,8 15,6 9 5 16 9 NE 20 0 0,0
19.10.2017 07:00:00 12,3 2,4 10,9 14,9 15,6 0 0 19 10 N 20 0 0,0
19.10.2017 06:00:00 12,4 2,5 11,3 14,9 15,6 12 7 31 17 NE 20 0 0,0
19.10.2017 05:00:00 12,7 3,4 11,7 15,0 15,7 13 7 22 12 NNE 16 0 0,0
19.10.2017 04:00:00 13,0 2,8 11,7 15,0 15,6 8 5 26 14 NNE 19 0 0,0
19.10.2017 03:00:00 13,4 2,9 12,3 15,0 15,6 10 5 21 11 NNE 19 0 0,0
19.10.2017 02:00:00 13,0 2,5 12,3 15,0 15,6 10 5 23 13 NE 20 0 0,0
19.10.2017 01:00:00 12,9 2,1 10,7 15,0 15,6 13 7 19 10 NE 20 0 0,0
19.10.2017 00:00:00 12,7 3,1 11,2 15,0 15,6 3 2 13 7 N 20 0 0,0
18.10.2017 23:00:00 13,1 2,6 9,9 15,0 15,6 4 2 7 4 NNE 20 0 0,0
18.10.2017 22:00:00 12,7 3,1 9,8 14,9 15,6 3 2 10 5 NNW 20 0 0,0
18.10.2017 21:00:00 13,9 3,4 10,3 14,8 15,6 5 3 8 4 NNW 20 0 0,0
18.10.2017 20:00:00 16,7 3,4 13,8 14,8 15,7 9 5 23 12 SSW 20 0 0,0
18.10.2017 19:00:00 18,1 2,4 16,9 14,7 15,6 10 6 26 14 S 20 0 0,0
18.10.2017 18:00:00 19,3 1,7 19,3 14,6 15,7 12 7 37 20 SSW 20 25 0,0
18.10.2017 17:00:00 21,6 0,1 21,1 14,5 15,6 17 9 36 20 WSW 20 45 0,0
18.10.2017 16:00:00 22,2 -0,5 27,5 14,5 15,6 18 10 37 20 WSW 20 60 0,0
18.10.2017 15:00:00 21,8 -0,9 27,9 14,4 15,6 14 8 39 21 WSW 20 60 0,0
18.10.2017 14:00:00 22,2 0,1 29,4 14,4 15,6 13 7 22 12 SSW 20 60 0,0
18.10.2017 13:00:00 19,6 -1,5 27,6 14,5 15,6 6 4 13 7 SSW 20 60 0,0
18.10.2017 12:00:00 16,6 -1,5 23,8 14,5 15,6 6 3 19 10 ENE 20 60 0,0
18.10.2017 11:00:00 13,8 -1,4 16,9 14,6 15,6 14 7 32 17 NNE 20 60 0,0
18.10.2017 10:00:00 11,1 -0,7 8,2 14,7 15,6 18 10 36 19 NE 20 60 0,0
18.10.2017 09:00:00 6,7 -0,5 4,6 14,8 15,7 19 10 29 16 NE 20 4 0,0
18.10.2017 08:00:00 6,1 -0,6 4,5 14,8 15,7 13 7 23 12 NE 20 0 0,0
18.10.2017 07:00:00 6,5 -0,3 3,3 14,9 15,6 13 7 18 10 NE 20 0 0,0
18.10.2017 06:00:00 6,8 -0,4 3,8 15,0 15,7 3 1 15 8 NNE 20 0 0,0
18.10.2017 05:00:00 6,8 -0,2 3,3 15,1 15,6 7 4 12 7 NE 20 0 0,0
18.10.2017 04:00:00 7,2 -0,8 3,6 15,1 15,6 2 1 5 3 N 20 0 0,0
18.10.2017 03:00:00 8,9 0,3 4,9 15,2 15,7 2 1 13 7 SW 20 0 0,0
18.10.2017 02:00:00 10,4 0,1 5,8 15,2 15,7 9 5 18 10 NE 20 0 0,0
18.10.2017 01:00:00 10,0 0,6 6,4 15,2 15,7 3 2 7 4 N 20 0 0,0
18.10.2017 00:00:00 10,9 0,9 6,8 15,2 15,7 4 2 10 5 NNW 20 0 0,0
17.10.2017 23:00:00 12,2 0,9 8,5 15,1 15,6 5 3 10 5 N 20 0 0,0
17.10.2017 22:00:00 13,4 1,1 9,6 15,1 15,7 4 2 6 4 NNW 20 0 0,0
17.10.2017 21:00:00 15,5 1,2 12,3 15,1 15,7 4 2 21 12 NW 20 0 0,0
17.10.2017 20:00:00 18,2 1,2 16,5 15,0 15,7 10 6 23 12 SSW 20 0 0,0
17.10.2017 19:00:00 19,4 1,8 17,9 14,8 15,7 7 4 31 17 SSW 20 25 0,0
17.10.2017 18:00:00 21,5 1,7 21,6 14,8 15,7 17 9 32 17 SSW 20 60 0,0
17.10.2017 17:00:00 23,5 -0,8 26,9 14,7 15,6 16 9 34 18 SSW 20 60 0,0
17.10.2017 16:00:00 24,0 -1,1 28,3 14,6 15,7 20 11 36 19 SSW 20 60 0,0
17.10.2017 15:00:00 23,4 -1,6 28,9 14,5 15,7 20 11 32 18 SSW 20 60 0,0
17.10.2017 14:00:00 22,3 -1,8 30,5 14,5 15,6 8 5 18 10 SSW 20 60 0,0
17.10.2017 13:00:00 21,6 -3,8 30,1 14,6 15,7 7 4 12 6 SSE 20 60 0,0
17.10.2017 12:00:00 19,3 -3,0 26,5 14,6 15,7 8 4 23 13 E 20 60 0,0
17.10.2017 11:00:00 16,3 -2,8 19,8 14,7 15,7 9 5 31 17 ENE 20 60 0,0
17.10.2017 10:00:00 13,2 -3,2 13,0 14,8 15,7 14 7 29 15 NE 20 60 0,0
17.10.2017 09:00:00 10,7 -3,8 6,4 14,8 15,7 17 9 29 16 NNE 20 6 0,0
17.10.2017 08:00:00 9,1 -3,8 6,7 14,9 15,7 13 7 27 15 NNE 20 0 0,0
17.10.2017 07:00:00 9,0 -3,9 6,6 15,0 15,7 14 8 24 13 NE 20 0 0,0
17.10.2017 06:00:00 9,1 -3,8 6,8 15,0 15,7 9 5 32 17 NE 20 0 0,0
17.10.2017 05:00:00 11,3 -4,0 8,6 15,1 15,7 16 8 31 17 NNE 20 0 0,0
17.10.2017 04:00:00 11,8 -4,0 8,9 15,2 15,7 19 10 39 21 NNE 20 0 0,0
17.10.2017 03:00:00 11,4 -3,2 8,4 15,2 15,7 13 7 27 15 NNE 20 0 0,0
17.10.2017 02:00:00 12,0 -3,0 8,3 15,2 15,7 16 9 29 15 NNE 20 0 0,0
17.10.2017 01:00:00 11,1 -2,4 9,1 15,2 15,7 11 6 24 13 NE 20 0 0,0
17.10.2017 00:00:00 12,6 -2,1 8,1 15,3 15,7 11 6 16 9 NE 20 0 0,0
16.10.2017 23:00:00 12,1 -1,1 8,2 15,3 15,7 3 2 9 5 N 20 0 0,0
16.10.2017 22:00:00 13,5 -0,2 9,4 15,2 15,7 3 1 10 5 N 20 0 0,0
16.10.2017 21:00:00 14,3 0,2 10,0 15,1 15,7 3 2 8 4 N 20 0 0,0
16.10.2017 20:00:00 15,7 0,3 11,6 15,1 15,7 6 4 10 5 NNW 20 0 0,0
16.10.2017 19:00:00 18,7 0,3 14,8 14,9 15,7 3 2 20 11 W 20 26 0,0
16.10.2017 18:00:00 22,3 1,3 21,6 14,8 15,7 14 8 32 17 SSW 20 60 0,0
16.10.2017 17:00:00 23,9 2,1 27,1 14,7 15,7 17 9 32 17 SSW 20 60 0,0
16.10.2017 16:00:00 24,7 0,9 29,5 14,6 15,7 17 9 32 18 SSW 20 60 0,0
16.10.2017 15:00:00 24,4 0,0 31,2 14,6 15,7 14 7 25 14 SSW 20 60 0,0
16.10.2017 14:00:00 22,7 -1,4 31,1 14,6 15,7 8 5 16 9 SSW 20 60 0,0
16.10.2017 13:00:00 21,6 -2,3 28,7 14,6 15,7 5 3 15 8 SW 20 60 0,0
16.10.2017 12:00:00 18,8 -3,4 26,9 14,6 15,7 8 4 23 13 E 20 60 0,0
16.10.2017 11:00:00 16,5 -0,3 19,7 14,7 15,7 9 5 29 16 ENE 20 60 0,0
16.10.2017 10:00:00 13,7 -0,4 14,2 14,8 15,7 18 10 34 18 NNE 20 60 0,0
16.10.2017 09:00:00 11,6 0,1 9,4 14,8 15,7 16 8 32 17 NNE 20 11 0,0
16.10.2017 08:00:00 11,3 -0,2 8,8 14,9 15,7 18 10 34 18 NNE 20 0 0,0
16.10.2017 07:00:00 11,1 -0,1 8,5 15,0 15,7 16 9 39 21 NNE 20 0 0,0
16.10.2017 06:00:00 10,8 0,5 8,4 15,0 15,7 13 7 32 17 NE 20 0 0,0
16.10.2017 05:00:00 12,1 0,5 9,4 15,1 15,7 19 10 38 21 NNE 20 0 0,0
16.10.2017 04:00:00 11,9 0,6 10,3 15,1 15,7 16 8 34 18 NNE 20 0 0,0
16.10.2017 03:00:00 12,3 1,0 9,2 15,1 15,7 16 9 24 13 NNE 20 0 0,0
16.10.2017 02:00:00 12,2 1,2 9,0 15,2 15,7 12 7 22 12 NNE 20 0 0,0
16.10.2017 01:00:00 11,8 1,7 8,7 15,2 15,7 12 6 16 9 NE 20 0 0,0
16.10.2017 00:00:00 12,1 1,7 9,1 15,2 15,7 6 3 16 8 NNE 20 0 0,0
15.10.2017 23:00:00 13,2 1,8 9,2 15,2 15,7 4 2 11 6 N 20 0 0,0
15.10.2017 22:00:00 13,6 2,2 9,6 15,1 15,7 5 3 8 5 N 20 0 0,0
15.10.2017 21:00:00 15,1 1,9 10,8 15,1 15,7 5 3 8 4 N 20 0 0,0
15.10.2017 20:00:00 16,6 1,8 12,7 15,0 15,7 4 2 8 5 NW 20 0 0,0
15.10.2017 19:00:00 19,6 2,0 16,6 14,8 15,7 6 3 18 10 W 20 28 0,0

tt = Température de l'air
td = dewpoint
tt 5cm = Température de l'air 5cm
tt -20cm = Température de l'air -20cm
tt -100cm = Température de l'air -100cm
ff = Vitesse du vent
fx = gusts
dd = Direction du vent
vv = visibility
sd = Ensoleillement
rr = Quantités de précipitations

stations d'obs. à proximité